sensor_id;sensor_type;location;lat;lon;timestamp;P1;durP1;ratioP1;P2;durP2;ratioP2
422;SDS011;198;48.752;9.180;2024-01-16T00:01:04;8.77;;;4.57;;
422;SDS011;198;48.752;9.180;2024-01-16T00:03:30;8.70;;;3.67;;
422;SDS011;198;48.752;9.180;2024-01-16T00:05:55;8.53;;;4.67;;
422;SDS011;198;48.752;9.180;2024-01-16T00:08:21;8.10;;;4.13;;
422;SDS011;198;48.752;9.180;2024-01-16T00:10:46;9.47;;;4.20;;
422;SDS011;198;48.752;9.180;2024-01-16T00:13:12;7.97;;;3.77;;
422;SDS011;198;48.752;9.180;2024-01-16T00:15:38;7.03;;;3.80;;
422;SDS011;198;48.752;9.180;2024-01-16T00:18:06;9.13;;;4.40;;
422;SDS011;198;48.752;9.180;2024-01-16T00:20:33;9.23;;;4.27;;
422;SDS011;198;48.752;9.180;2024-01-16T00:22:59;5.97;;;3.73;;
422;SDS011;198;48.752;9.180;2024-01-16T00:25:25;12.00;;;4.57;;
422;SDS011;198;48.752;9.180;2024-01-16T00:27:50;9.33;;;4.33;;
422;SDS011;198;48.752;9.180;2024-01-16T00:30:16;7.60;;;4.10;;
422;SDS011;198;48.752;9.180;2024-01-16T00:32:42;6.60;;;3.93;;
422;SDS011;198;48.752;9.180;2024-01-16T00:35:07;10.70;;;4.20;;
422;SDS011;198;48.752;9.180;2024-01-16T00:37:34;4.57;;;3.70;;
422;SDS011;198;48.752;9.180;2024-01-16T00:40:01;13.63;;;4.67;;
422;SDS011;198;48.752;9.180;2024-01-16T00:42:29;9.23;;;4.30;;
422;SDS011;198;48.752;9.180;2024-01-16T00:44:55;18.67;;;3.83;;
422;SDS011;198;48.752;9.180;2024-01-16T00:47:20;9.87;;;4.33;;
422;SDS011;198;48.752;9.180;2024-01-16T00:49:46;10.17;;;4.17;;
422;SDS011;198;48.752;9.180;2024-01-16T00:52:12;6.37;;;3.70;;
422;SDS011;198;48.752;9.180;2024-01-16T00:54:38;7.47;;;3.90;;
422;SDS011;198;48.752;9.180;2024-01-16T00:57:04;8.07;;;3.80;;
422;SDS011;198;48.752;9.180;2024-01-16T00:59:30;6.13;;;3.50;;
422;SDS011;198;48.752;9.180;2024-01-16T01:01:56;8.13;;;4.23;;
422;SDS011;198;48.752;9.180;2024-01-16T01:04:21;9.97;;;3.93;;
422;SDS011;198;48.752;9.180;2024-01-16T01:06:47;10.10;;;4.20;;
422;SDS011;198;48.752;9.180;2024-01-16T01:09:12;6.93;;;3.60;;
422;SDS011;198;48.752;9.180;2024-01-16T01:11:38;7.93;;;4.40;;
422;SDS011;198;48.752;9.180;2024-01-16T01:14:04;8.20;;;3.90;;
422;SDS011;198;48.752;9.180;2024-01-16T01:16:29;13.20;;;4.00;;
422;SDS011;198;48.752;9.180;2024-01-16T01:18:56;9.40;;;4.60;;
422;SDS011;198;48.752;9.180;2024-01-16T01:21:21;8.27;;;3.10;;
422;SDS011;198;48.752;9.180;2024-01-16T01:23:47;7.67;;;3.83;;
422;SDS011;198;48.752;9.180;2024-01-16T01:26:12;14.57;;;4.13;;
422;SDS011;198;48.752;9.180;2024-01-16T01:28:43;12.70;;;4.50;;
422;SDS011;198;48.752;9.180;2024-01-16T01:31:09;16.43;;;4.20;;
422;SDS011;198;48.752;9.180;2024-01-16T01:33:38;7.70;;;3.57;;
422;SDS011;198;48.752;9.180;2024-01-16T01:36:04;9.50;;;4.77;;
422;SDS011;198;48.752;9.180;2024-01-16T01:38:30;6.23;;;3.23;;
422;SDS011;198;48.752;9.180;2024-01-16T01:40:55;7.93;;;3.80;;
422;SDS011;198;48.752;9.180;2024-01-16T01:43:22;7.40;;;3.40;;
422;SDS011;198;48.752;9.180;2024-01-16T01:48:46;6.70;;;3.70;;
422;SDS011;198;48.752;9.180;2024-01-16T01:51:13;5.07;;;3.50;;
422;SDS011;198;48.752;9.180;2024-01-16T01:53:42;9.07;;;3.90;;
422;SDS011;198;48.752;9.180;2024-01-16T01:56:10;6.67;;;3.87;;
422;SDS011;198;48.752;9.180;2024-01-16T01:58:38;8.73;;;3.67;;
422;SDS011;198;48.752;9.180;2024-01-16T02:01:06;6.70;;;3.93;;
422;SDS011;198;48.752;9.180;2024-01-16T02:03:41;6.87;;;3.30;;
422;SDS011;198;48.752;9.180;2024-01-16T02:06:08;10.33;;;4.33;;
422;SDS011;198;48.752;9.180;2024-01-16T02:08:36;8.07;;;3.57;;
422;SDS011;198;48.752;9.180;2024-01-16T02:11:08;7.13;;;3.70;;
422;SDS011;198;48.752;9.180;2024-01-16T02:13:34;14.37;;;4.83;;
422;SDS011;198;48.752;9.180;2024-01-16T02:16:00;10.93;;;4.13;;
422;SDS011;198;48.752;9.180;2024-01-16T02:18:26;11.30;;;3.90;;
422;SDS011;198;48.752;9.180;2024-01-16T02:20:51;6.50;;;3.80;;
422;SDS011;198;48.752;9.180;2024-01-16T02:23:28;8.00;;;3.73;;
422;SDS011;198;48.752;9.180;2024-01-16T02:25:56;9.13;;;4.00;;
422;SDS011;198;48.752;9.180;2024-01-16T02:28:21;8.17;;;3.70;;
422;SDS011;198;48.752;9.180;2024-01-16T02:30:47;7.60;;;4.03;;
422;SDS011;198;48.752;9.180;2024-01-16T02:33:12;5.10;;;3.53;;
422;SDS011;198;48.752;9.180;2024-01-16T02:35:38;7.43;;;4.00;;
422;SDS011;198;48.752;9.180;2024-01-16T02:38:04;10.30;;;4.40;;
422;SDS011;198;48.752;9.180;2024-01-16T02:40:29;9.93;;;3.87;;
422;SDS011;198;48.752;9.180;2024-01-16T02:42:55;8.47;;;4.23;;
422;SDS011;198;48.752;9.180;2024-01-16T02:45:20;8.40;;;3.97;;
422;SDS011;198;48.752;9.180;2024-01-16T02:47:46;10.57;;;3.80;;
422;SDS011;198;48.752;9.180;2024-01-16T02:50:12;5.90;;;2.93;;
422;SDS011;198;48.752;9.180;2024-01-16T02:52:38;13.43;;;4.27;;
422;SDS011;198;48.752;9.180;2024-01-16T02:55:04;11.40;;;3.90;;
422;SDS011;198;48.752;9.180;2024-01-16T02:57:30;10.10;;;4.37;;
422;SDS011;198;48.752;9.180;2024-01-16T02:59:55;9.00;;;4.03;;
422;SDS011;198;48.752;9.180;2024-01-16T03:02:21;10.27;;;3.63;;
422;SDS011;198;48.752;9.180;2024-01-16T03:04:47;16.63;;;3.60;;
422;SDS011;198;48.752;9.180;2024-01-16T03:07:13;14.20;;;4.30;;
422;SDS011;198;48.752;9.180;2024-01-16T03:09:38;8.93;;;4.03;;
422;SDS011;198;48.752;9.180;2024-01-16T03:12:04;7.90;;;3.87;;
422;SDS011;198;48.752;9.180;2024-01-16T03:14:30;13.53;;;4.17;;
422;SDS011;198;48.752;9.180;2024-01-16T03:17:01;10.43;;;4.53;;
422;SDS011;198;48.752;9.180;2024-01-16T03:19:27;17.63;;;4.53;;
422;SDS011;198;48.752;9.180;2024-01-16T03:21:52;7.20;;;4.00;;
422;SDS011;198;48.752;9.180;2024-01-16T03:24:18;8.63;;;4.60;;
422;SDS011;198;48.752;9.180;2024-01-16T03:26:45;23.47;;;4.47;;
422;SDS011;198;48.752;9.180;2024-01-16T03:29:10;10.30;;;4.00;;
422;SDS011;198;48.752;9.180;2024-01-16T03:31:36;10.57;;;3.93;;
422;SDS011;198;48.752;9.180;2024-01-16T03:34:01;9.33;;;3.63;;
422;SDS011;198;48.752;9.180;2024-01-16T03:36:27;9.83;;;4.07;;
422;SDS011;198;48.752;9.180;2024-01-16T03:38:52;12.57;;;4.00;;
422;SDS011;198;48.752;9.180;2024-01-16T03:41:18;11.80;;;3.30;;
422;SDS011;198;48.752;9.180;2024-01-16T03:43:43;9.53;;;3.60;;
422;SDS011;198;48.752;9.180;2024-01-16T03:46:12;8.20;;;4.00;;
422;SDS011;198;48.752;9.180;2024-01-16T03:48:38;8.87;;;3.60;;
422;SDS011;198;48.752;9.180;2024-01-16T03:51:04;11.73;;;4.37;;
422;SDS011;198;48.752;9.180;2024-01-16T03:53:31;10.90;;;4.20;;
422;SDS011;198;48.752;9.180;2024-01-16T03:55:57;4.57;;;3.23;;
422;SDS011;198;48.752;9.180;2024-01-16T03:58:22;5.63;;;3.50;;
422;SDS011;198;48.752;9.180;2024-01-16T04:00:48;11.67;;;3.67;;
422;SDS011;198;48.752;9.180;2024-01-16T04:03:15;8.83;;;3.33;;
422;SDS011;198;48.752;9.180;2024-01-16T04:05:41;9.07;;;3.60;;
422;SDS011;198;48.752;9.180;2024-01-16T04:08:07;8.80;;;3.77;;
422;SDS011;198;48.752;9.180;2024-01-16T04:10:32;10.27;;;3.23;;
422;SDS011;198;48.752;9.180;2024-01-16T04:13:00;11.47;;;3.70;;
422;SDS011;198;48.752;9.180;2024-01-16T04:15:26;9.37;;;4.40;;
422;SDS011;198;48.752;9.180;2024-01-16T04:17:52;7.50;;;3.60;;
422;SDS011;198;48.752;9.180;2024-01-16T04:20:17;7.63;;;3.80;;
422;SDS011;198;48.752;9.180;2024-01-16T04:22:43;9.67;;;3.23;;
422;SDS011;198;48.752;9.180;2024-01-16T04:25:10;8.67;;;3.77;;
422;SDS011;198;48.752;9.180;2024-01-16T04:27:35;7.40;;;3.53;;
422;SDS011;198;48.752;9.180;2024-01-16T04:30:01;8.10;;;3.10;;
422;SDS011;198;48.752;9.180;2024-01-16T04:32:27;8.40;;;4.50;;
422;SDS011;198;48.752;9.180;2024-01-16T04:34:52;10.03;;;4.27;;
422;SDS011;198;48.752;9.180;2024-01-16T04:37:18;12.93;;;2.97;;
422;SDS011;198;48.752;9.180;2024-01-16T04:39:44;9.60;;;3.30;;
422;SDS011;198;48.752;9.180;2024-01-16T04:42:09;8.70;;;3.17;;
422;SDS011;198;48.752;9.180;2024-01-16T04:44:35;9.37;;;3.60;;
422;SDS011;198;48.752;9.180;2024-01-16T04:47:00;11.70;;;4.13;;
422;SDS011;198;48.752;9.180;2024-01-16T04:49:26;7.20;;;3.30;;
422;SDS011;198;48.752;9.180;2024-01-16T04:51:52;6.20;;;2.93;;
422;SDS011;198;48.752;9.180;2024-01-16T04:54:18;8.40;;;3.37;;
422;SDS011;198;48.752;9.180;2024-01-16T04:56:43;6.13;;;3.50;;
422;SDS011;198;48.752;9.180;2024-01-16T04:59:09;5.40;;;3.20;;
422;SDS011;198;48.752;9.180;2024-01-16T05:01:34;13.47;;;3.93;;
422;SDS011;198;48.752;9.180;2024-01-16T05:04:00;5.00;;;2.73;;
422;SDS011;198;48.752;9.180;2024-01-16T05:06:25;12.83;;;4.03;;
422;SDS011;198;48.752;9.180;2024-01-16T05:08:51;7.67;;;3.37;;
422;SDS011;198;48.752;9.180;2024-01-16T05:11:16;11.30;;;3.87;;
422;SDS011;198;48.752;9.180;2024-01-16T05:13:42;7.67;;;3.57;;
422;SDS011;198;48.752;9.180;2024-01-16T05:16:07;7.20;;;3.50;;
422;SDS011;198;48.752;9.180;2024-01-16T05:18:33;8.07;;;3.77;;
422;SDS011;198;48.752;9.180;2024-01-16T05:20:58;8.00;;;4.03;;
422;SDS011;198;48.752;9.180;2024-01-16T05:23:24;11.60;;;4.10;;
422;SDS011;198;48.752;9.180;2024-01-16T05:25:49;4.57;;;2.73;;
422;SDS011;198;48.752;9.180;2024-01-16T05:28:15;7.03;;;3.53;;
422;SDS011;198;48.752;9.180;2024-01-16T05:30:41;12.10;;;3.93;;
422;SDS011;198;48.752;9.180;2024-01-16T05:33:06;8.33;;;3.67;;
422;SDS011;198;48.752;9.180;2024-01-16T05:35:32;10.83;;;3.87;;
422;SDS011;198;48.752;9.180;2024-01-16T05:37:58;9.33;;;3.43;;
422;SDS011;198;48.752;9.180;2024-01-16T05:40:24;8.87;;;4.30;;
422;SDS011;198;48.752;9.180;2024-01-16T05:42:50;11.30;;;3.80;;
422;SDS011;198;48.752;9.180;2024-01-16T05:45:15;18.80;;;4.57;;
422;SDS011;198;48.752;9.180;2024-01-16T05:47:41;10.63;;;3.87;;
422;SDS011;198;48.752;9.180;2024-01-16T05:50:07;28.13;;;4.90;;
422;SDS011;198;48.752;9.180;2024-01-16T05:52:33;12.13;;;3.63;;
422;SDS011;198;48.752;9.180;2024-01-16T05:54:59;10.53;;;4.03;;
422;SDS011;198;48.752;9.180;2024-01-16T05:57:25;5.63;;;3.60;;
422;SDS011;198;48.752;9.180;2024-01-16T05:59:51;9.93;;;3.83;;
422;SDS011;198;48.752;9.180;2024-01-16T06:02:17;21.03;;;3.67;;
422;SDS011;198;48.752;9.180;2024-01-16T06:04:42;7.83;;;3.17;;
422;SDS011;198;48.752;9.180;2024-01-16T06:07:08;10.20;;;4.77;;
422;SDS011;198;48.752;9.180;2024-01-16T06:09:37;9.90;;;4.23;;
422;SDS011;198;48.752;9.180;2024-01-16T06:12:05;12.37;;;4.30;;
422;SDS011;198;48.752;9.180;2024-01-16T06:14:32;16.37;;;4.60;;
422;SDS011;198;48.752;9.180;2024-01-16T06:16:57;9.40;;;4.43;;
422;SDS011;198;48.752;9.180;2024-01-16T06:19:23;10.47;;;4.00;;
422;SDS011;198;48.752;9.180;2024-01-16T06:21:48;10.03;;;3.57;;
422;SDS011;198;48.752;9.180;2024-01-16T06:24:14;12.30;;;4.47;;
422;SDS011;198;48.752;9.180;2024-01-16T06:26:39;11.53;;;3.63;;
422;SDS011;198;48.752;9.180;2024-01-16T06:29:05;8.83;;;3.77;;
422;SDS011;198;48.752;9.180;2024-01-16T06:31:30;14.47;;;2.83;;
422;SDS011;198;48.752;9.180;2024-01-16T06:33:56;15.43;;;3.10;;
422;SDS011;198;48.752;9.180;2024-01-16T06:36:21;9.90;;;4.20;;
422;SDS011;198;48.752;9.180;2024-01-16T06:38:47;4.23;;;3.03;;
422;SDS011;198;48.752;9.180;2024-01-16T06:41:12;3.57;;;2.87;;
422;SDS011;198;48.752;9.180;2024-01-16T06:43:38;7.40;;;3.40;;
422;SDS011;198;48.752;9.180;2024-01-16T06:46:04;8.23;;;4.00;;
422;SDS011;198;48.752;9.180;2024-01-16T06:48:30;5.87;;;3.20;;
422;SDS011;198;48.752;9.180;2024-01-16T06:50:56;13.37;;;3.80;;
422;SDS011;198;48.752;9.180;2024-01-16T06:53:21;15.90;;;3.43;;
422;SDS011;198;48.752;9.180;2024-01-16T06:55:47;12.93;;;3.83;;
422;SDS011;198;48.752;9.180;2024-01-16T06:58:13;12.40;;;3.80;;
422;SDS011;198;48.752;9.180;2024-01-16T07:00:39;7.73;;;3.00;;
422;SDS011;198;48.752;9.180;2024-01-16T07:03:06;6.10;;;3.87;;
422;SDS011;198;48.752;9.180;2024-01-16T07:05:32;6.17;;;2.43;;
422;SDS011;198;48.752;9.180;2024-01-16T07:07:57;5.07;;;3.20;;
422;SDS011;198;48.752;9.180;2024-01-16T07:10:23;9.53;;;3.20;;
422;SDS011;198;48.752;9.180;2024-01-16T07:12:49;5.60;;;2.80;;
422;SDS011;198;48.752;9.180;2024-01-16T07:15:16;6.70;;;3.37;;
422;SDS011;198;48.752;9.180;2024-01-16T07:17:42;12.97;;;3.77;;
422;SDS011;198;48.752;9.180;2024-01-16T07:20:07;6.90;;;2.80;;
422;SDS011;198;48.752;9.180;2024-01-16T07:22:33;8.20;;;2.77;;
422;SDS011;198;48.752;9.180;2024-01-16T07:24:59;6.80;;;3.03;;
422;SDS011;198;48.752;9.180;2024-01-16T07:27:25;7.70;;;3.10;;
422;SDS011;198;48.752;9.180;2024-01-16T07:29:51;6.47;;;3.60;;
422;SDS011;198;48.752;9.180;2024-01-16T07:32:16;8.20;;;2.40;;
422;SDS011;198;48.752;9.180;2024-01-16T07:34:42;7.97;;;2.90;;
422;SDS011;198;48.752;9.180;2024-01-16T07:37:07;5.73;;;3.30;;
422;SDS011;198;48.752;9.180;2024-01-16T07:39:33;24.50;;;3.07;;
422;SDS011;198;48.752;9.180;2024-01-16T07:41:58;12.33;;;3.97;;
422;SDS011;198;48.752;9.180;2024-01-16T07:44:24;7.87;;;2.80;;
422;SDS011;198;48.752;9.180;2024-01-16T07:46:49;6.97;;;3.30;;
422;SDS011;198;48.752;9.180;2024-01-16T07:49:15;8.80;;;3.27;;
422;SDS011;198;48.752;9.180;2024-01-16T07:51:41;6.97;;;3.00;;
422;SDS011;198;48.752;9.180;2024-01-16T07:54:08;8.57;;;3.50;;
422;SDS011;198;48.752;9.180;2024-01-16T07:56:34;7.60;;;3.17;;
422;SDS011;198;48.752;9.180;2024-01-16T07:59:00;7.57;;;3.87;;
422;SDS011;198;48.752;9.180;2024-01-16T08:01:27;7.47;;;3.03;;
422;SDS011;198;48.752;9.180;2024-01-16T08:03:53;4.80;;;2.90;;
422;SDS011;198;48.752;9.180;2024-01-16T08:06:22;4.23;;;2.13;;
422;SDS011;198;48.752;9.180;2024-01-16T08:08:48;11.87;;;4.00;;
422;SDS011;198;48.752;9.180;2024-01-16T08:11:14;8.13;;;2.90;;
422;SDS011;198;48.752;9.180;2024-01-16T08:13:40;8.00;;;3.20;;
422;SDS011;198;48.752;9.180;2024-01-16T08:16:06;13.30;;;3.87;;
422;SDS011;198;48.752;9.180;2024-01-16T08:18:33;12.77;;;3.83;;
422;SDS011;198;48.752;9.180;2024-01-16T08:20:59;4.47;;;2.83;;
422;SDS011;198;48.752;9.180;2024-01-16T08:23:24;13.57;;;3.00;;
422;SDS011;198;48.752;9.180;2024-01-16T08:25:50;10.93;;;3.73;;
422;SDS011;198;48.752;9.180;2024-01-16T08:28:16;11.23;;;4.20;;
422;SDS011;198;48.752;9.180;2024-01-16T08:30:42;9.03;;;2.73;;
422;SDS011;198;48.752;9.180;2024-01-16T08:33:08;10.83;;;3.97;;
422;SDS011;198;48.752;9.180;2024-01-16T08:35:34;4.80;;;2.97;;
422;SDS011;198;48.752;9.180;2024-01-16T08:37:59;5.33;;;2.67;;
422;SDS011;198;48.752;9.180;2024-01-16T08:40:25;8.43;;;3.23;;
422;SDS011;198;48.752;9.180;2024-01-16T08:42:50;5.80;;;3.37;;
422;SDS011;198;48.752;9.180;2024-01-16T08:45:19;6.10;;;2.80;;
422;SDS011;198;48.752;9.180;2024-01-16T08:47:46;6.60;;;3.13;;
422;SDS011;198;48.752;9.180;2024-01-16T08:50:11;6.00;;;2.87;;
422;SDS011;198;48.752;9.180;2024-01-16T08:52:37;9.27;;;4.10;;
422;SDS011;198;48.752;9.180;2024-01-16T08:55:03;11.40;;;4.17;;
422;SDS011;198;48.752;9.180;2024-01-16T08:57:29;11.27;;;2.83;;
422;SDS011;198;48.752;9.180;2024-01-16T08:59:54;8.97;;;3.23;;
422;SDS011;198;48.752;9.180;2024-01-16T09:02:20;4.00;;;2.23;;
422;SDS011;198;48.752;9.180;2024-01-16T09:04:45;7.33;;;3.30;;
422;SDS011;198;48.752;9.180;2024-01-16T09:07:12;8.33;;;2.73;;
422;SDS011;198;48.752;9.180;2024-01-16T09:09:41;11.40;;;3.17;;
422;SDS011;198;48.752;9.180;2024-01-16T09:12:07;10.83;;;3.73;;
422;SDS011;198;48.752;9.180;2024-01-16T09:14:33;5.47;;;2.73;;
422;SDS011;198;48.752;9.180;2024-01-16T09:16:59;4.57;;;3.10;;
422;SDS011;198;48.752;9.180;2024-01-16T09:19:24;12.73;;;3.60;;
422;SDS011;198;48.752;9.180;2024-01-16T09:21:50;10.10;;;3.17;;
422;SDS011;198;48.752;9.180;2024-01-16T09:24:15;6.13;;;3.30;;
422;SDS011;198;48.752;9.180;2024-01-16T09:26:41;5.67;;;2.93;;
422;SDS011;198;48.752;9.180;2024-01-16T09:29:07;6.03;;;3.13;;
422;SDS011;198;48.752;9.180;2024-01-16T09:31:34;6.93;;;2.90;;
422;SDS011;198;48.752;9.180;2024-01-16T09:34:00;5.37;;;2.53;;
422;SDS011;198;48.752;9.180;2024-01-16T09:36:26;7.50;;;3.40;;
422;SDS011;198;48.752;9.180;2024-01-16T09:38:52;14.40;;;3.20;;
422;SDS011;198;48.752;9.180;2024-01-16T09:41:17;11.70;;;3.37;;
422;SDS011;198;48.752;9.180;2024-01-16T09:43:43;10.73;;;3.80;;
422;SDS011;198;48.752;9.180;2024-01-16T09:46:11;7.33;;;3.40;;
422;SDS011;198;48.752;9.180;2024-01-16T09:48:37;5.83;;;3.13;;
422;SDS011;198;48.752;9.180;2024-01-16T09:51:02;9.63;;;3.47;;
422;SDS011;198;48.752;9.180;2024-01-16T09:53:28;10.37;;;3.67;;
422;SDS011;198;48.752;9.180;2024-01-16T09:55:54;5.73;;;3.30;;
422;SDS011;198;48.752;9.180;2024-01-16T09:58:26;4.67;;;2.50;;
422;SDS011;198;48.752;9.180;2024-01-16T10:00:53;3.30;;;2.40;;
422;SDS011;198;48.752;9.180;2024-01-16T10:03:20;5.93;;;3.10;;
422;SDS011;198;48.752;9.180;2024-01-16T10:05:47;3.57;;;2.60;;
422;SDS011;198;48.752;9.180;2024-01-16T10:08:13;5.13;;;2.60;;
422;SDS011;198;48.752;9.180;2024-01-16T10:10:39;4.77;;;2.43;;
422;SDS011;198;48.752;9.180;2024-01-16T10:13:04;4.07;;;2.80;;
422;SDS011;198;48.752;9.180;2024-01-16T10:15:31;10.87;;;2.63;;
422;SDS011;198;48.752;9.180;2024-01-16T10:17:58;4.80;;;2.80;;
422;SDS011;198;48.752;9.180;2024-01-16T10:20:33;11.50;;;2.73;;
422;SDS011;198;48.752;9.180;2024-01-16T10:23:00;9.90;;;2.70;;
422;SDS011;198;48.752;9.180;2024-01-16T10:25:25;8.33;;;2.90;;
422;SDS011;198;48.752;9.180;2024-01-16T10:28:04;3.07;;;2.27;;
422;SDS011;198;48.752;9.180;2024-01-16T10:30:32;6.13;;;2.70;;
422;SDS011;198;48.752;9.180;2024-01-16T10:33:11;4.63;;;2.70;;
422;SDS011;198;48.752;9.180;2024-01-16T10:35:41;8.10;;;2.70;;
422;SDS011;198;48.752;9.180;2024-01-16T10:38:06;9.00;;;2.40;;
422;SDS011;198;48.752;9.180;2024-01-16T10:40:32;6.87;;;3.00;;
422;SDS011;198;48.752;9.180;2024-01-16T10:43:02;3.70;;;2.47;;
422;SDS011;198;48.752;9.180;2024-01-16T10:45:29;10.00;;;3.20;;
422;SDS011;198;48.752;9.180;2024-01-16T10:48:02;7.93;;;3.43;;
422;SDS011;198;48.752;9.180;2024-01-16T10:50:29;8.10;;;2.77;;
422;SDS011;198;48.752;9.180;2024-01-16T10:52:55;4.83;;;2.70;;
422;SDS011;198;48.752;9.180;2024-01-16T10:55:24;3.27;;;2.40;;
422;SDS011;198;48.752;9.180;2024-01-16T10:57:53;6.00;;;2.53;;
422;SDS011;198;48.752;9.180;2024-01-16T11:00:20;6.13;;;2.27;;
422;SDS011;198;48.752;9.180;2024-01-16T11:02:51;10.53;;;2.13;;
422;SDS011;198;48.752;9.180;2024-01-16T11:05:25;3.60;;;2.00;;
422;SDS011;198;48.752;9.180;2024-01-16T11:07:55;7.70;;;2.70;;
422;SDS011;198;48.752;9.180;2024-01-16T11:10:21;4.73;;;2.10;;
422;SDS011;198;48.752;9.180;2024-01-16T11:12:47;2.20;;;1.97;;
422;SDS011;198;48.752;9.180;2024-01-16T11:15:14;13.37;;;3.10;;
422;SDS011;198;48.752;9.180;2024-01-16T11:17:40;10.20;;;2.20;;
422;SDS011;198;48.752;9.180;2024-01-16T11:20:09;7.83;;;1.83;;
422;SDS011;198;48.752;9.180;2024-01-16T11:22:38;7.60;;;2.07;;
422;SDS011;198;48.752;9.180;2024-01-16T11:25:11;8.27;;;2.60;;
422;SDS011;198;48.752;9.180;2024-01-16T11:27:38;9.80;;;2.90;;
422;SDS011;198;48.752;9.180;2024-01-16T11:30:05;6.43;;;2.30;;
422;SDS011;198;48.752;9.180;2024-01-16T11:32:33;4.63;;;2.13;;
422;SDS011;198;48.752;9.180;2024-01-16T11:35:01;8.47;;;2.17;;
422;SDS011;198;48.752;9.180;2024-01-16T11:37:28;5.60;;;2.47;;
422;SDS011;198;48.752;9.180;2024-01-16T11:42:47;13.50;;;2.20;;
422;SDS011;198;48.752;9.180;2024-01-16T11:48:13;6.70;;;2.37;;
422;SDS011;198;48.752;9.180;2024-01-16T11:50:41;3.60;;;1.83;;
422;SDS011;198;48.752;9.180;2024-01-16T11:53:07;6.00;;;2.87;;
422;SDS011;198;48.752;9.180;2024-01-16T12:00:47;4.40;;;2.30;;
422;SDS011;198;48.752;9.180;2024-01-16T12:03:16;5.90;;;2.37;;
422;SDS011;198;48.752;9.180;2024-01-16T12:05:54;3.40;;;2.10;;
422;SDS011;198;48.752;9.180;2024-01-16T12:08:27;7.73;;;4.53;;
422;SDS011;198;48.752;9.180;2024-01-16T12:10:53;2.77;;;1.87;;
422;SDS011;198;48.752;9.180;2024-01-16T12:13:19;6.20;;;2.93;;
422;SDS011;198;48.752;9.180;2024-01-16T12:15:44;4.10;;;2.37;;
422;SDS011;198;48.752;9.180;2024-01-16T12:18:17;8.83;;;2.33;;
422;SDS011;198;48.752;9.180;2024-01-16T12:20:43;10.73;;;1.70;;
422;SDS011;198;48.752;9.180;2024-01-16T12:23:09;3.43;;;1.73;;
422;SDS011;198;48.752;9.180;2024-01-16T12:25:35;5.50;;;2.10;;
422;SDS011;198;48.752;9.180;2024-01-16T12:28:03;5.40;;;1.90;;
422;SDS011;198;48.752;9.180;2024-01-16T12:30:30;1.30;;;1.30;;
422;SDS011;198;48.752;9.180;2024-01-16T12:33:06;9.37;;;2.40;;
422;SDS011;198;48.752;9.180;2024-01-16T12:35:36;3.97;;;2.27;;
422;SDS011;198;48.752;9.180;2024-01-16T12:38:09;6.20;;;1.90;;
422;SDS011;198;48.752;9.180;2024-01-16T12:40:37;6.67;;;2.47;;
422;SDS011;198;48.752;9.180;2024-01-16T12:43:15;4.20;;;1.80;;
422;SDS011;198;48.752;9.180;2024-01-16T12:45:42;3.00;;;1.63;;
422;SDS011;198;48.752;9.180;2024-01-16T12:48:09;11.03;;;2.10;;
422;SDS011;198;48.752;9.180;2024-01-16T12:50:35;3.80;;;2.10;;
422;SDS011;198;48.752;9.180;2024-01-16T12:53:05;4.37;;;2.20;;
422;SDS011;198;48.752;9.180;2024-01-16T12:55:39;13.13;;;2.90;;
422;SDS011;198;48.752;9.180;2024-01-16T12:58:21;7.43;;;2.57;;
422;SDS011;198;48.752;9.180;2024-01-16T13:00:53;4.87;;;2.10;;
422;SDS011;198;48.752;9.180;2024-01-16T13:03:19;5.53;;;1.93;;
422;SDS011;198;48.752;9.180;2024-01-16T13:05:56;16.43;;;2.17;;
422;SDS011;198;48.752;9.180;2024-01-16T13:08:23;6.13;;;1.90;;
422;SDS011;198;48.752;9.180;2024-01-16T13:11:06;3.87;;;1.90;;
422;SDS011;198;48.752;9.180;2024-01-16T13:13:32;1.47;;;1.40;;
422;SDS011;198;48.752;9.180;2024-01-16T13:15:59;2.30;;;1.87;;
422;SDS011;198;48.752;9.180;2024-01-16T13:18:29;6.20;;;2.40;;
422;SDS011;198;48.752;9.180;2024-01-16T13:20:55;4.73;;;1.73;;
422;SDS011;198;48.752;9.180;2024-01-16T13:23:22;8.20;;;3.10;;
422;SDS011;198;48.752;9.180;2024-01-16T13:25:50;5.07;;;2.10;;
422;SDS011;198;48.752;9.180;2024-01-16T13:28:16;3.60;;;1.60;;
422;SDS011;198;48.752;9.180;2024-01-16T13:30:43;3.97;;;2.17;;
422;SDS011;198;48.752;9.180;2024-01-16T13:33:10;5.50;;;2.40;;
422;SDS011;198;48.752;9.180;2024-01-16T13:35:39;7.93;;;2.00;;
422;SDS011;198;48.752;9.180;2024-01-16T13:38:06;6.73;;;2.13;;
422;SDS011;198;48.752;9.180;2024-01-16T13:40:33;3.77;;;2.00;;
422;SDS011;198;48.752;9.180;2024-01-16T13:43:00;5.53;;;2.87;;
422;SDS011;198;48.752;9.180;2024-01-16T13:45:29;10.30;;;3.00;;
422;SDS011;198;48.752;9.180;2024-01-16T13:47:55;4.97;;;2.10;;
422;SDS011;198;48.752;9.180;2024-01-16T13:50:21;4.13;;;2.33;;
422;SDS011;198;48.752;9.180;2024-01-16T13:52:47;4.63;;;1.33;;
422;SDS011;198;48.752;9.180;2024-01-16T13:55:13;6.87;;;2.13;;
422;SDS011;198;48.752;9.180;2024-01-16T13:57:38;2.60;;;1.50;;
422;SDS011;198;48.752;9.180;2024-01-16T14:00:05;7.83;;;1.90;;
422;SDS011;198;48.752;9.180;2024-01-16T14:02:32;3.20;;;1.67;;
422;SDS011;198;48.752;9.180;2024-01-16T14:05:03;2.60;;;1.70;;
422;SDS011;198;48.752;9.180;2024-01-16T14:07:30;3.77;;;2.00;;
422;SDS011;198;48.752;9.180;2024-01-16T14:09:56;2.60;;;1.80;;
422;SDS011;198;48.752;9.180;2024-01-16T14:12:23;4.77;;;2.37;;
422;SDS011;198;48.752;9.180;2024-01-16T14:14:49;8.13;;;2.03;;
422;SDS011;198;48.752;9.180;2024-01-16T14:17:16;7.47;;;2.60;;
422;SDS011;198;48.752;9.180;2024-01-16T14:19:41;2.10;;;1.40;;
422;SDS011;198;48.752;9.180;2024-01-16T14:22:07;8.00;;;2.43;;
422;SDS011;198;48.752;9.180;2024-01-16T14:24:33;4.67;;;1.90;;
422;SDS011;198;48.752;9.180;2024-01-16T14:26:59;7.50;;;2.17;;
422;SDS011;198;48.752;9.180;2024-01-16T14:29:24;7.77;;;2.07;;
422;SDS011;198;48.752;9.180;2024-01-16T14:31:51;7.33;;;2.00;;
422;SDS011;198;48.752;9.180;2024-01-16T14:34:17;3.53;;;2.00;;
422;SDS011;198;48.752;9.180;2024-01-16T14:36:42;3.17;;;2.10;;
422;SDS011;198;48.752;9.180;2024-01-16T14:39:08;4.63;;;2.33;;
422;SDS011;198;48.752;9.180;2024-01-16T14:41:41;5.80;;;1.87;;
422;SDS011;198;48.752;9.180;2024-01-16T14:44:08;3.53;;;2.43;;
422;SDS011;198;48.752;9.180;2024-01-16T14:46:34;2.73;;;2.10;;
422;SDS011;198;48.752;9.180;2024-01-16T14:49:00;3.17;;;1.87;;
422;SDS011;198;48.752;9.180;2024-01-16T14:51:27;7.87;;;2.97;;
422;SDS011;198;48.752;9.180;2024-01-16T14:53:52;8.17;;;3.17;;
422;SDS011;198;48.752;9.180;2024-01-16T14:56:18;7.30;;;2.50;;
422;SDS011;198;48.752;9.180;2024-01-16T14:58:45;8.43;;;2.90;;
422;SDS011;198;48.752;9.180;2024-01-16T15:01:10;3.47;;;2.17;;
422;SDS011;198;48.752;9.180;2024-01-16T15:03:36;3.30;;;2.10;;
422;SDS011;198;48.752;9.180;2024-01-16T15:06:01;3.60;;;2.00;;
422;SDS011;198;48.752;9.180;2024-01-16T15:08:27;4.03;;;2.13;;
422;SDS011;198;48.752;9.180;2024-01-16T15:10:55;4.60;;;2.37;;
422;SDS011;198;48.752;9.180;2024-01-16T15:13:21;5.60;;;2.07;;
422;SDS011;198;48.752;9.180;2024-01-16T15:15:48;3.43;;;2.30;;
422;SDS011;198;48.752;9.180;2024-01-16T15:18:13;12.17;;;2.67;;
422;SDS011;198;48.752;9.180;2024-01-16T15:20:39;7.97;;;2.13;;
422;SDS011;198;48.752;9.180;2024-01-16T15:23:04;5.30;;;2.93;;
422;SDS011;198;48.752;9.180;2024-01-16T15:25:31;6.10;;;2.73;;
422;SDS011;198;48.752;9.180;2024-01-16T15:27:57;4.03;;;2.50;;
422;SDS011;198;48.752;9.180;2024-01-16T15:30:22;9.53;;;2.63;;
422;SDS011;198;48.752;9.180;2024-01-16T15:32:52;7.60;;;2.93;;
422;SDS011;198;48.752;9.180;2024-01-16T15:35:18;8.43;;;3.07;;
422;SDS011;198;48.752;9.180;2024-01-16T15:37:47;5.63;;;2.10;;
422;SDS011;198;48.752;9.180;2024-01-16T15:40:13;4.30;;;2.50;;
422;SDS011;198;48.752;9.180;2024-01-16T15:42:39;9.43;;;2.90;;
422;SDS011;198;48.752;9.180;2024-01-16T15:45:05;4.57;;;2.17;;
422;SDS011;198;48.752;9.180;2024-01-16T15:47:32;4.90;;;2.40;;
422;SDS011;198;48.752;9.180;2024-01-16T15:49:58;4.30;;;2.10;;
422;SDS011;198;48.752;9.180;2024-01-16T15:52:24;3.83;;;2.70;;